Latest Weather Observations for Canberra

IDN60901

Issued at 3:41 pm EST Thursday 1 September 2016 (issued every 10 minutes, with the page automatically refreshed every 10 minutes)

About weather observations | Map of Canberra area stations | Latest observations for Canberra area | Other Formats
Station Details ID: 070351 Name: CANBERRA AIRPORT Lat: -35.31 Lon: 149.20 Height: 577.05 m
Data from the previous 72 hours. | See also: Recent months at Canberra
Date/Time
EST
Temp
°C
App
Temp
°C
Dew
Point
°C
Rel
Hum
%
Delta-T
°C
Wind Press
QNH
hPa
Press
MSL
hPa
Rain since
9am
mm
Dir  Spd
km/h
Gust
km/h
Spd
kts
Gust
kts
01/03:30pm 14.6 8.7 4.0 49 5.0 NNW 24 32 13 17 1015.9 1016.1 0.0
01/03:00pm 14.7 8.9 4.4 50 4.9 NNW 24 30 13 16 1016.2 1016.3 0.0
01/02:30pm 15.0 10.2 5.5 53 4.7 NNW 20 30 11 16 1016.3 1016.4 0.0
01/02:00pm 15.7 11.0 5.9 52 4.9 N 20 28 11 15 1016.6 1016.7 0.0
01/01:30pm 15.2 10.6 5.4 52 4.8 NNW 19 26 10 14 1016.8 1016.9 0.0
01/01:00pm 15.0 11.7 4.7 50 5.0 N 11 17 6 9 1017.0 1017.1 0.0
01/12:30pm 14.5 11.5 4.2 50 4.9 NE 9 17 5 9 1017.3 1017.4 0.0
01/12:00pm 15.8 12.9 4.5 47 5.5 NNW 9 22 5 12 1018.0 1018.1 0.0
01/11:30am 15.1 12.5 4.2 48 5.2 WSW 7 17 4 9 1018.2 1018.3 0.0
01/11:00am 15.1 12.0 5.6 53 4.7 W 11 20 6 11 1018.7 1018.8 0.0
01/10:30am 14.7 10.7 4.7 51 4.8 NW 15 28 8 15 1019.3 1019.5 0.0
01/10:00am 14.0 9.7 3.5 49 4.9 W 15 20 8 11 1019.6 1019.8 0.0
01/09:30am 13.4 10.0 5.8 60 3.7 NW 13 15 7 8 1020.0 1020.8 0.0
01/09:00am 12.2 9.1 7.3 72 2.4 NW 13 17 7 9 1020.1 1020.9 1.8
01/08:30am 11.4 9.6 7.1 75 2.1 NNW 6 9 3 5 1019.9 1020.7 1.8
01/08:00am 9.9 7.9 6.4 79 1.7 ESE 6 7 3 4 1019.6 1020.5 1.8
01/07:30am 7.8 5.9 7.4 97 0.2 S 7 11 4 6 1019.3 1020.2 1.8
01/07:00am 6.1 3.8 5.5 96 0.3 NNW 7 11 4 6 1019.1 1020.0 1.8
01/06:30am 6.4 3.8 6.3 99 0.0 NNE 9 11 5 6 1019.0 1019.9 1.8
01/06:00am 4.9 3.7 4.8 99 0.0 CALM 0 0 0 0 1018.7 1019.5 1.8
01/05:30am 7.0 5.0 6.9 99 0.0 NNE 7 7 4 4 1018.6 1019.4 1.8
01/05:00am 6.9 4.5 6.8 99 0.0 NNE 9 9 5 5 1018.5 1019.3 1.8
01/04:30am 6.3 4.3 6.2 99 0.0 NNE 6 9 3 5 1018.3 1019.1 1.8
01/04:00am 7.2 5.2 7.1 99 0.0 NNW 7 9 4 5 1018.3 1019.1 1.8
01/03:30am 7.6 4.8 7.0 96 0.3 N 11 13 6 7 1018.5 1019.3 1.8
01/03:00am 8.4 5.3 7.3 93 0.5 N 13 15 7 8 1018.7 1019.5 1.8
01/02:30am 8.0 4.5 7.2 95 0.4 N 15 17 8 9 1018.7 1019.5 1.8
01/02:00am 7.6 4.8 6.9 95 0.3 NNW 11 15 6 8 1018.9 1019.8 1.8
01/01:30am 8.1 4.5 6.9 92 0.6 NNW 15 17 8 9 1018.9 1019.8 1.8
01/01:00am 8.7 4.7 6.7 87 1.0 N 17 19 9 10 1018.6 1019.4 1.8
01/12:30am 9.1 5.6 7.1 87 1.0 N 15 19 8 10 1018.4 1019.2 1.8
01/12:00am 8.4 5.9 6.7 89 0.8 N 9 11 5 6 1018.3 1019.1 1.8
 
Date/Time
EST
Temp
°C
App
Temp
°C
Dew
Point
°C
Rel
Hum
%
Delta-T
°C
Wind Press
QNH
hPa
Press
MSL
hPa
Rain since
9am
mm
Dir  Spd
km/h
Gust
km/h
Spd
kts
Gust
kts
31/11:30pm 8.5 4.8 6.5 87 1.0 NW 15 19 8 10 1018.4 1019.2 1.8
31/11:00pm 9.7 5.4 6.8 82 1.4 WNW 19 26 10 14 1018.4 1019.2 1.8
31/10:30pm 8.7 5.5 6.7 87 1.0 NW 13 17 7 9 1018.2 1019.0 1.8
31/10:00pm 10.3 6.0 6.8 79 1.7 NNW 19 22 10 12 1018.1 1018.9 1.8
31/09:30pm 9.7 6.8 6.4 80 1.6 N 11 15 6 8 1018.1 1018.9 1.8
31/09:00pm 11.1 7.1 6.8 75 2.1 WNW 17 22 9 12 1017.7 1018.6 1.8
31/08:30pm 11.5 5.5 7.0 74 2.2 WNW 28 35 15 19 1017.3 1018.1 1.8
31/08:00pm 11.7 6.5 7.4 75 2.1 WNW 24 32 13 17 1017.2 1018.0 1.8
31/07:30pm 11.5 6.4 7.6 77 1.9 NW 24 28 13 15 1017.1 1017.9 1.8
31/07:00pm 11.8 7.6 8.1 78 1.9 NW 20 20 11 11 1016.9 1017.7 1.8
31/06:30pm 12.5 8.6 8.6 77 2.0 NW 19 24 10 13 1016.6 1017.4 1.8
31/06:00pm 12.2 9.1 8.7 79 1.8 NNW 15 19 8 10 1016.3 1017.1 1.8
31/05:30pm 13.0 8.8 8.3 73 2.4 NW 20 32 11 17 1015.6 1016.4 1.8
31/05:00pm 14.8 9.9 8.5 66 3.3 WNW 24 35 13 19 1015.1 1015.9 1.8
31/04:30pm 15.4 9.6 7.9 61 3.9 WNW 28 35 15 19 1014.7 1015.5 1.8
31/04:00pm 16.5 12.8 9.4 63 3.8 WNW 19 28 10 15 1014.1 1014.9 1.8
31/03:30pm 15.5 11.7 11.1 75 2.4 NW 22 32 12 17 1014.1 1014.9 1.8
31/03:00pm 16.0 12.2 12.4 79 2.0 NW 24 32 13 17 1014.0 1014.8 1.8
31/02:30pm 15.6 10.7 12.5 82 1.8 NNW 30 39 16 21 1014.0 1014.8 1.8
31/02:00pm 14.5 8.9 12.2 86 1.3 NW 33 44 18 24 1014.4 1015.1 1.8
31/01:30pm 13.7 9.1 12.4 92 0.7 NNW 28 39 15 21 1014.7 1015.5 1.8
31/01:00pm 13.9 8.0 12.3 90 0.9 NNW 35 50 19 27 1014.9 1015.7 1.8
31/12:30pm 14.0 8.7 12.4 90 0.9 NW 32 46 17 25 1015.3 1016.1 1.8
31/12:00pm 13.6 9.0 12.3 92 0.7 NNW 28 37 15 20 1015.5 1016.3 1.8
31/11:30am 13.5 8.1 12.1 91 0.8 NNW 32 41 17 22 1016.3 1017.1 1.8
31/11:00am 13.4 8.7 12.1 92 0.7 NNW 28 37 15 20 1016.5 1017.3 1.8
31/10:30am 13.4 8.4 12.3 93 0.6 NNW 30 37 16 20 1016.6 1017.4 1.6
31/10:21am 13.2 7.9 12.4 95 0.4 NW 32 41 17 22 1016.7 1017.5 1.6
31/10:00am 13.1 7.6 12.5 96 0.3 NNW 33 46 18 25 1016.8 1017.6 1.6
31/09:30am 12.8 8.3 12.5 98 0.2 NNW 28 35 15 19 1017.2 1018.0 1.2
31/09:00am 12.7 8.5 12.5 99 0.1 NNW 26 35 14 19 1017.7 1018.6 9.8
31/08:30am 12.6 9.7 12.4 99 0.1 NNW 19 26 10 14 1017.3 1018.1 8.2
31/08:00am 12.6 8.0 12.3 98 0.2 N 28 35 15 19 1017.4 1018.3 6.8
31/07:30am 12.6 9.1 12.3 98 0.2 N 22 30 12 16 1017.5 1018.4 5.6
31/07:00am 12.5 9.4 12.3 99 0.1 NNW 20 30 11 16 1017.6 1018.5 5.2
31/06:30am 12.5 8.2 12.2 98 0.2 NNW 26 41 14 22 1018.0 1018.8 4.2
31/06:00am 12.6 7.6 12.3 98 0.2 NNW 30 37 16 20 1018.3 1019.1 3.2
31/05:30am 12.7 7.3 12.1 96 0.3 NNW 32 44 17 24 1018.3 1019.1 2.4
31/05:00am 12.7 7.3 12.2 97 0.3 NNW 32 41 17 22 1018.3 1019.1 1.6
31/04:44am 12.7 7.3 12.1 96 0.3 NNW 32 50 17 27 1018.4 1019.2 1.2
31/04:30am 12.9 7.5 12.1 95 0.4 NNW 32 46 17 25 1018.3 1019.1 0.6
31/04:00am 13.3 6.4 11.5 89 1.0 NNW 39 54 21 29 1018.0 1018.8 0.0
31/03:56am 13.2 7.1 11.6 90 0.9 NNW 35 52 19 28 1018.0 1018.8 0.0
31/03:32am 13.5 9.3 11.0 85 1.4 NNW 24 33 13 18 1017.8 1018.7 0.0
31/03:30am 13.4 9.2 11.1 86 1.3 NNW 24 33 13 18 1017.7 1018.6 0.0
31/03:00am 14.0 9.6 10.4 79 1.9 NNW 24 33 13 18 1017.7 1018.6 0.0
31/02:30am 14.2 9.7 10.0 76 2.2 NNW 24 32 13 17 1018.2 1019.0 0.0
31/02:00am 14.2 9.6 9.8 75 2.3 N 24 30 13 16 1018.8 1019.6 0.0
31/01:30am 14.1 8.8 9.9 76 2.2 NNW 28 35 15 19 1019.3 1020.2 0.0
31/01:00am 14.0 10.2 9.8 76 2.2 NNW 20 28 11 15 1019.7 1020.6 0.0
31/12:30am 14.1 9.9 9.7 75 2.3 NNW 22 32 12 17 1020.3 1021.1 0.0
31/12:00am 13.4 10.1 9.5 77 2.0 NNW 17 19 9 10 1020.4 1021.3 0.0
 
Date/Time
EST
Temp
°C
App
Temp
°C
Dew
Point
°C
Rel
Hum
%
Delta-T
°C
Wind Press
QNH
hPa
Press
MSL
hPa
Rain since
9am
mm
Dir  Spd
km/h
Gust
km/h
Spd
kts
Gust
kts
30/11:30pm 13.5 10.5 9.2 75 2.3 N 15 17 8 9 1020.9 1021.8 0.0
30/11:00pm 13.2 9.8 9.1 76 2.1 N 17 19 9 10 1021.2 1022.1 0.0
30/10:30pm 13.7 10.3 9.2 74 2.4 N 17 19 9 10 1021.4 1022.3 0.0
30/10:00pm 12.6 10.7 8.9 78 1.9 N 9 13 5 7 1021.4 1022.3 0.0
30/09:30pm 13.1 11.1 8.8 75 2.2 N 9 11 5 6 1021.5 1022.4 0.0
30/09:00pm 12.8 10.8 8.7 76 2.1 NNE 9 11 5 6 1021.4 1022.3 0.0
30/08:30pm 13.5 12.0 9.0 74 2.3 N 7 9 4 5 1021.8 1022.6 0.0
30/08:00pm 12.8 12.4 8.3 74 2.3 CALM 0 0 0 0 1021.5 1022.4 0.0
30/07:30pm 14.1 12.1 8.5 69 2.9 N 9 11 5 6 1021.7 1022.5 0.0
30/07:00pm 13.4 11.0 8.7 73 2.4 ENE 11 15 6 8 1020.9 1021.8 0.0
30/06:30pm 14.1 11.6 8.3 68 3.0 NE 11 13 6 7 1021.9 1022.8 0.0
30/06:00pm 14.4 11.4 7.9 65 3.3 NNW 13 17 7 9 1021.8 1022.6 0.0
30/05:30pm 14.9 12.0 8.2 64 3.5 NNW 13 19 7 10 1021.4 1022.3 0.0
30/05:00pm 16.6 12.9 8.1 57 4.4 N 17 19 9 10 1021.2 1022.1 0.0
30/04:30pm 17.1 13.4 8.0 55 4.8 NW 17 24 9 13 1021.2 1022.1 0.0
30/04:00pm 17.7 13.2 6.9 49 5.5 NNW 20 28 11 15 1021.2 1022.1 0.0
30/03:30pm 19.0 14.5 6.8 45 6.3 NNW 20 32 11 17 1021.7 1022.5 0.0
30/03:00pm 18.8 13.5 6.9 46 6.1 NW 24 32 13 17 1021.9 1022.8 0.0
30/02:30pm 19.0 14.1 6.8 45 6.3 NNW 22 33 12 18 1022.0 1022.9 0.0
30/02:00pm 18.5 14.4 6.0 44 6.3 NNW 17 26 9 14 1022.4 1023.3 0.0
30/01:30pm 18.4 12.9 4.2 39 6.9 NNW 22 33 12 18 1022.8 1023.7 0.0
30/01:00pm 17.6 12.8 4.6 42 6.3 NW 19 30 10 16 1023.3 1024.3 0.0
30/12:30pm 16.7 11.8 4.1 43 6.1 NNW 19 26 10 14 1024.1 1025.0 0.0
30/12:00pm 15.7 12.4 4.4 47 5.4 N 11 15 6 8 1024.3 1025.2 0.0
30/11:30am 14.6 11.9 5.7 55 4.4 NNW 9 13 5 7 1025.5 1026.4 0.0
30/11:00am 13.2 10.8 5.4 59 3.7 W 7 9 4 5 1026.0 1026.9 0.0
30/10:30am 12.5 11.5 5.4 62 3.4 CALM 0 7 0 4 1026.1 1027.0 0.0
30/10:00am 11.4 9.7 5.7 68 2.7 SW 4 7 2 4 1026.0 1026.9 0.0
30/09:30am 10.1 8.0 6.8 80 1.6 N 7 9 4 5 1025.9 1026.8 0.0
30/09:00am 8.3 6.6 5.9 85 1.1 W 4 7 2 4 1026.0 1026.9 0.0
30/08:30am 7.2 6.3 6.0 92 0.6 CALM 0 0 0 0 1026.2 1027.2 0.0
30/08:00am 6.2 3.7 5.0 92 0.5 N 7 7 4 4 1026.6 1027.6 0.0
30/07:30am 5.4 3.0 5.1 98 0.1 ENE 7 9 4 5 1026.1 1027.0 0.0
30/07:00am 4.0 1.5 3.6 97 0.2 SE 6 7 3 4 1025.8 1026.7 0.0
30/06:30am 4.3 1.7 4.2 99 0.0 S 7 9 4 5 1025.5 1026.4 0.0
30/06:00am 3.4 0.6 3.1 98 0.1 SSE 7 7 4 4 1025.4 1026.3 0.0
30/05:30am 4.1 2.8 4.0 99 0.0 CALM 0 0 0 0 1025.5 1026.4 0.0
30/05:00am 3.8 2.3 3.1 95 0.3 CALM 0 0 0 0 1025.2 1026.2 0.0
30/04:30am 4.3 1.6 3.6 95 0.3 N 7 9 4 5 1025.4 1026.3 0.0
30/04:00am 4.7 2.2 4.0 95 0.3 NE 6 7 3 4 1025.0 1026.0 0.0
30/03:30am 4.4 1.7 3.7 95 0.3 NE 7 9 4 5 1025.0 1026.0 0.0
30/03:00am 5.6 3.2 4.2 91 0.6 SW 6 7 3 4 1025.0 1026.0 0.0
30/02:30am 5.3 2.8 4.7 96 0.3 SE 7 9 4 5 1024.7 1025.7 0.0
30/02:00am 4.9 2.3 4.0 94 0.4 E 7 9 4 5 1025.4 1026.3 0.0
30/01:30am 5.1 2.0 3.6 90 0.6 NNW 9 13 5 7 1025.8 1026.7 0.0
30/01:00am 5.3 2.7 4.1 92 0.5 NE 7 11 4 6 1025.6 1026.5 0.0
30/12:30am 5.2 2.5 3.9 91 0.6 SSE 7 7 4 4 1025.9 1026.8 0.0
30/12:00am 5.2 2.6 4.3 94 0.4 ESE 7 9 4 5 1026.1 1027.0 0.0
 
Date/Time
EST
Temp
°C
App
Temp
°C
Dew
Point
°C
Rel
Hum
%
Delta-T
°C
Wind Press
QNH
hPa
Press
MSL
hPa
Rain since
9am
mm
Dir  Spd
km/h
Gust
km/h
Spd
kts
Gust
kts
29/11:30pm 5.3 2.2 3.6 89 0.7 NNW 9 11 5 6 1026.4 1027.4 0.0
29/11:00pm 5.5 2.9 3.3 86 0.9 NE 6 7 3 4 1025.9 1026.8 0.0
29/10:30pm 5.4 4.0 3.3 86 0.9 CALM 0 0 0 0 1026.2 1027.2 0.0
29/10:00pm 6.0 2.8 3.3 83 1.2 ESE 9 11 5 6 1026.0 1026.9 0.0
29/09:30pm 6.3 3.8 3.6 83 1.2 SSW 6 6 3 3 1026.3 1027.3 0.0
29/09:00pm 7.2 5.4 3.6 78 1.6 SW 2 7 1 4 1026.3 1027.3 0.0
29/08:30pm 7.0 5.2 3.4 78 1.6 E 2 7 1 4 1025.8 1026.7 0.0
29/08:00pm 5.8 2.6 3.1 83 1.2 ESE 9 11 5 6 1025.6 1026.5 0.0
29/07:30pm 6.2 3.6 3.0 80 1.4 NE 6 11 3 6 1025.4 1026.3 0.0
29/07:00pm 6.9 3.9 2.2 72 2.0 E 7 11 4 6 1024.8 1025.8 0.0
29/06:30pm 7.8 5.0 3.1 72 2.1 NE 7 11 4 6 1025.0 1026.0 0.0
29/06:00pm 8.8 5.6 3.2 68 2.5 ENE 9 11 5 6 1024.7 1025.7 0.0
29/05:30pm 12.8 9.7 1.5 46 5.0 N 7 11 4 6 1024.7 1025.7 0.0
29/05:00pm 14.3 11.6 3.5 48 5.0 NNE 7 9 4 5 1024.5 1025.4 0.0
29/04:30pm 14.1 10.8 2.7 46 5.2 NNE 9 11 5 6 1024.5 1025.4 0.0
29/04:00pm 14.4 10.7 2.3 44 5.5 N 11 15 6 8 1024.7 1025.7 0.0

Latest Capital City Observations: Canberra | Sydney | Melbourne | Brisbane | Adelaide | Perth | Hobart | Darwin

Other Formats:

Comma delimited format used in spreadsheet applications
http://www.bom.gov.au/fwo/IDN60903/IDN60903.94926.axf

JavaScript Object Notation format (JSON) in row-major order
http://www.bom.gov.au/fwo/IDN60903/IDN60903.94926.json